Time,TemperatureF,DewpointF,PressureIn,WindDirection,WindDirectionDegrees,WindSpeedMPH,WindSpeedGustMPH,Humidity,HourlyPrecipIn,Conditions,Clouds,dailyrainin,SoftwareType,DateUTC
2013-01-06 00:02:00,63.5,60.0,30.21,NE,54,4.0,-999.0,88,-99.99,,,0.00,weatherlink.com 1.10,2013-01-06 05:02:00,
2013-01-06 00:17:00,63.5,60.0,30.21,NE,54,1.0,-999.0,89,-99.99,,,0.00,weatherlink.com 1.10,2013-01-06 05:17:00,
2013-01-06 00:32:00,63.3,59.0,30.20,NE,54,4.0,-999.0,87,-99.99,,,0.00,weatherlink.com 1.10,2013-01-06 05:32:00,
2013-01-06 00:47:00,63.2,60.0,30.20,NE,55,1.0,-999.0,88,-99.99,,,0.00,weatherlink.com 1.10,2013-01-06 05:47:00,
2013-01-06 01:02:00,63.1,60.0,30.19,NE,55,1.0,-999.0,88,-99.99,,,0.00,weatherlink.com 1.10,2013-01-06 06:02:00,
2013-01-06 01:17:00,63.0,59.0,30.19,NE,51,2.0,-999.0,88,-99.99,,,0.00,weatherlink.com 1.10,2013-01-06 06:17:00,
2013-01-06 01:32:00,62.8,59.0,30.18,NE,53,2.0,-999.0,88,-99.99,,,0.00,weatherlink.com 1.10,2013-01-06 06:32:00,
2013-01-06 01:47:00,62.7,60.0,30.18,NE,53,0.0,-999.0,89,-99.99,,,0.00,weatherlink.com 1.10,2013-01-06 06:47:00,
2013-01-06 02:02:00,62.6,59.0,30.17,NE,53,2.0,-999.0,89,-99.99,,,0.00,weatherlink.com 1.10,2013-01-06 07:02:00,
2013-01-06 02:17:00,62.6,59.0,30.17,NE,53,1.0,-999.0,89,-99.99,,,0.00,weatherlink.com 1.10,2013-01-06 07:17:00,
2013-01-06 02:32:00,62.6,59.0,30.17,NE,53,4.0,-999.0,89,-99.99,,,0.00,weatherlink.com 1.10,2013-01-06 07:32:00,
2013-01-06 02:47:00,62.6,59.0,30.17,NE,40,5.0,-999.0,89,-99.99,,,0.00,weatherlink.com 1.10,2013-01-06 07:47:00,
2013-01-06 03:02:00,62.6,60.0,30.17,NE,39,0.0,-999.0,90,-99.99,,,0.00,weatherlink.com 1.10,2013-01-06 08:02:00,
2013-01-06 03:17:00,62.7,60.0,30.17,NE,39,0.0,-999.0,89,-99.99,,,0.00,weatherlink.com 1.10,2013-01-06 08:17:00,
2013-01-06 03:32:00,62.7,60.0,30.17,NNE,32,0.0,-999.0,89,-99.99,,,0.00,weatherlink.com 1.10,2013-01-06 08:32:00,
2013-01-06 03:47:00,62.5,59.0,30.16,NNE,32,0.0,-999.0,89,-99.99,,,0.00,weatherlink.com 1.10,2013-01-06 08:47:00,
2013-01-06 04:02:00,62.4,59.0,30.16,NNE,32,0.0,-999.0,89,-99.99,,,0.00,weatherlink.com 1.10,2013-01-06 09:02:00,
2013-01-06 04:17:00,62.4,59.0,30.16,NNE,32,0.0,-999.0,89,-99.99,,,0.00,weatherlink.com 1.10,2013-01-06 09:17:00,
2013-01-06 04:32:00,62.4,60.0,30.16,NNE,33,4.0,-999.0,90,-99.99,,,0.00,weatherlink.com 1.10,2013-01-06 09:32:00,
2013-01-06 04:47:00,62.4,59.0,30.15,NE,34,5.0,-999.0,89,-99.99,,,0.00,weatherlink.com 1.10,2013-01-06 09:47:00,
2013-01-06 05:02:00,62.3,59.0,30.15,NE,38,1.0,-999.0,89,-99.99,,,0.00,weatherlink.com 1.10,2013-01-06 10:02:00,
2013-01-06 05:17:00,62.2,59.0,30.14,NE,38,2.0,-999.0,90,-99.99,,,0.00,weatherlink.com 1.10,2013-01-06 10:17:00,
2013-01-06 05:32:00,62.2,60.0,30.15,NE,39,1.0,-999.0,91,-99.99,,,0.00,weatherlink.com 1.10,2013-01-06 10:32:00,
2013-01-06 05:47:00,61.9,60.0,30.14,NE,49,1.0,-999.0,92,-99.99,,,0.00,weatherlink.com 1.10,2013-01-06 10:47:00,
2013-01-06 06:02:00,61.6,60.0,30.15,NE,49,1.0,-999.0,93,-99.99,,,0.00,weatherlink.com 1.10,2013-01-06 11:02:00,
2013-01-06 06:17:00,61.3,60.0,30.15,NE,48,0.0,-999.0,94,-99.99,,,0.00,weatherlink.com 1.10,2013-01-06 11:17:00,
2013-01-06 06:32:00,61.3,60.0,30.15,NE,47,0.0,-999.0,94,-99.99,,,0.00,weatherlink.com 1.10,2013-01-06 11:32:00,
2013-01-06 06:47:00,61.2,60.0,30.15,NE,47,1.0,-999.0,94,-99.99,,,0.00,weatherlink.com 1.10,2013-01-06 11:47:00,
2013-01-06 07:02:00,61.2,60.0,30.16,NE,48,2.0,-999.0,95,-99.99,,,0.00,weatherlink.com 1.10,2013-01-06 12:02:00,
2013-01-06 07:17:00,61.2,60.0,30.16,NE,47,6.0,-999.0,95,-99.99,,,0.00,weatherlink.com 1.10,2013-01-06 12:17:00,
2013-01-06 07:32:00,61.1,60.0,30.17,NE,48,0.0,-999.0,95,-99.99,,,0.00,weatherlink.com 1.10,2013-01-06 12:32:00,
2013-01-06 07:47:00,61.1,60.0,30.16,NE,49,0.0,-999.0,96,-99.99,,,0.00,weatherlink.com 1.10,2013-01-06 12:47:00,
2013-01-06 08:02:00,61.1,60.0,30.16,NE,49,1.0,-999.0,96,-99.99,,,0.00,weatherlink.com 1.10,2013-01-06 13:02:00,
2013-01-06 08:17:00,61.3,60.0,30.16,ESE,121,6.0,-999.0,96,-99.99,,,0.00,weatherlink.com 1.10,2013-01-06 13:17:00,
2013-01-06 08:32:00,61.5,60.0,30.16,SE,135,4.0,-999.0,96,-99.99,,,0.00,weatherlink.com 1.10,2013-01-06 13:32:00,
2013-01-06 08:47:00,62.0,61.0,30.17,SE,134,1.0,-999.0,97,-99.99,,,0.00,weatherlink.com 1.10,2013-01-06 13:47:00,
2013-01-06 09:02:00,62.4,62.0,30.17,SE,134,4.0,-999.0,97,-99.99,,,0.00,weatherlink.com 1.10,2013-01-06 14:02:00,
2013-01-06 09:17:00,62.7,62.0,30.17,SE,134,0.0,-999.0,97,-99.99,,,0.00,weatherlink.com 1.10,2013-01-06 14:17:00,
2013-01-06 09:32:00,63.5,63.0,30.17,SE,136,0.0,-999.0,97,-99.99,,,0.00,weatherlink.com 1.10,2013-01-06 14:32:00,
2013-01-06 09:47:00,64.6,64.0,30.17,SSW,193,4.0,-999.0,97,-99.99,,,0.00,weatherlink.com 1.10,2013-01-06 14:47:00,
2013-01-06 10:02:00,65.6,64.0,30.18,SSE,150,1.0,-999.0,95,-99.99,,,0.00,weatherlink.com 1.10,2013-01-06 15:02:00,
2013-01-06 10:17:00,67.5,66.0,30.17,SSE,154,1.0,-999.0,93,-99.99,,,0.00,weatherlink.com 1.10,2013-01-06 15:17:00,
2013-01-06 10:32:00,69.2,66.0,30.17,South,171,1.0,-999.0,89,-99.99,,,0.00,weatherlink.com 1.10,2013-01-06 15:32:00,
2013-01-06 10:47:00,71.0,66.0,30.17,SSW,201,5.0,-999.0,85,-99.99,,,0.00,weatherlink.com 1.10,2013-01-06 15:47:00,
2013-01-06 11:02:00,72.0,67.0,30.16,WSW,238,0.0,-999.0,84,-99.99,,,0.00,weatherlink.com 1.10,2013-01-06 16:02:00,
2013-01-06 11:17:00,73.3,68.0,30.16,SSW,213,7.0,-999.0,82,-99.99,,,0.00,weatherlink.com 1.10,2013-01-06 16:17:00,
2013-01-06 11:32:00,73.7,67.0,30.15,SW,217,1.0,-999.0,80,-99.99,,,0.00,weatherlink.com 1.10,2013-01-06 16:32:00,
2013-01-06 11:47:00,75.2,68.0,30.14,South,169,3.0,-999.0,77,-99.99,,,0.00,weatherlink.com 1.10,2013-01-06 16:47:00,
2013-01-06 12:02:00,76.2,68.0,30.13,SSW,203,2.0,-999.0,75,-99.99,,,0.00,weatherlink.com 1.10,2013-01-06 17:02:00,
2013-01-06 12:17:00,77.1,68.0,30.12,SW,223,5.0,-999.0,73,-99.99,,,0.00,weatherlink.com 1.10,2013-01-06 17:17:00,
2013-01-06 12:32:00,77.9,68.0,30.11,South,182,4.0,-999.0,72,-99.99,,,0.00,weatherlink.com 1.10,2013-01-06 17:32:00,
2013-01-06 12:47:00,78.0,68.0,30.11,SSW,194,2.0,-999.0,71,-99.99,,,0.00,weatherlink.com 1.10,2013-01-06 17:47:00,
2013-01-06 13:02:00,78.8,68.0,30.10,WSW,240,6.0,-999.0,69,-99.99,,,0.00,weatherlink.com 1.10,2013-01-06 18:02:00,
2013-01-06 13:18:00,79.2,68.0,30.09,SSW,203,8.0,-999.0,69,-99.99,,,0.00,weatherlink.com 1.10,2013-01-06 18:18:00,
2013-01-06 13:32:00,78.7,68.0,30.09,South,187,7.0,-999.0,70,-99.99,,,0.00,weatherlink.com 1.10,2013-01-06 18:32:00,
2013-01-06 13:47:00,78.4,68.0,30.08,SSW,207,7.0,-999.0,70,-99.99,,,0.00,weatherlink.com 1.10,2013-01-06 18:47:00,
2013-01-06 14:02:00,78.2,68.0,30.07,SW,221,4.0,-999.0,70,-99.99,,,0.00,weatherlink.com 1.10,2013-01-06 19:02:00,
2013-01-06 14:17:00,78.9,67.0,30.07,South,188,1.0,-999.0,68,-99.99,,,0.00,weatherlink.com 1.10,2013-01-06 19:17:00,
2013-01-06 14:32:00,78.3,68.0,30.07,South,184,4.0,-999.0,70,-99.99,,,0.00,weatherlink.com 1.10,2013-01-06 19:32:00,
2013-01-06 14:47:00,78.2,68.0,30.07,South,186,2.0,-999.0,70,-99.99,,,0.00,weatherlink.com 1.10,2013-01-06 19:47:00,
2013-01-06 15:02:00,78.4,68.0,30.07,South,186,4.0,-999.0,70,-99.99,,,0.00,weatherlink.com 1.10,2013-01-06 20:02:00,
2013-01-06 15:17:00,78.5,68.0,30.07,SSW,213,3.0,-999.0,70,-99.99,,,0.00,weatherlink.com 1.10,2013-01-06 20:17:00,
2013-01-06 15:32:00,79.0,68.0,30.07,SSW,201,0.0,-999.0,69,-99.99,,,0.00,weatherlink.com 1.10,2013-01-06 20:32:00,
2013-01-06 15:47:00,79.0,68.0,30.06,SSW,201,2.0,-999.0,69,-99.99,,,0.00,weatherlink.com 1.10,2013-01-06 20:47:00,
2013-01-06 16:02:00,78.6,68.0,30.06,SSW,209,0.0,-999.0,70,-99.99,,,0.00,weatherlink.com 1.10,2013-01-06 21:02:00,
2013-01-06 16:17:00,78.5,68.0,30.06,SSW,209,0.0,-999.0,70,-99.99,,,0.00,weatherlink.com 1.10,2013-01-06 21:17:00,
2013-01-06 16:33:00,78.6,68.0,30.06,SSW,209,0.0,-999.0,70,-99.99,,,0.00,weatherlink.com 1.10,2013-01-06 21:33:00,
2013-01-06 16:47:00,78.5,68.0,30.06,SSW,208,1.0,-999.0,71,-99.99,,,0.00,weatherlink.com 1.10,2013-01-06 21:47:00,
2013-01-06 17:02:00,78.3,68.0,30.06,SSW,209,0.0,-999.0,71,-99.99,,,0.00,weatherlink.com 1.10,2013-01-06 22:02:00,
2013-01-06 17:17:00,77.9,68.0,30.07,SSW,213,0.0,-999.0,72,-99.99,,,0.00,weatherlink.com 1.10,2013-01-06 22:17:00,
2013-01-06 17:32:00,77.6,68.0,30.07,SW,219,0.0,-999.0,72,-99.99,,,0.00,weatherlink.com 1.10,2013-01-06 22:32:00,
2013-01-06 17:46:00,77.2,68.0,30.07,SW,225,0.0,-999.0,72,-99.99,,,0.00,weatherlink.com 1.10,2013-01-06 22:46:00,
2013-01-06 18:02:00,77.0,67.0,30.08,SW,225,0.0,-999.0,72,-99.99,,,0.00,weatherlink.com 1.10,2013-01-06 23:02:00,
2013-01-06 18:17:00,76.6,67.0,30.09,SW,225,0.0,-999.0,73,-99.99,,,0.00,weatherlink.com 1.10,2013-01-06 23:17:00,
2013-01-06 18:32:00,74.8,68.0,30.10,SW,227,0.0,-999.0,80,-99.99,,,0.15,weatherlink.com 1.10,2013-01-06 23:32:00,
2013-01-06 18:48:00,72.1,67.0,30.09,SW,227,0.0,-999.0,85,-99.99,,,0.18,weatherlink.com 1.10,2013-01-06 23:48:00,
2013-01-06 19:02:00,71.2,68.0,30.10,SW,227,0.0,-999.0,88,-99.99,,,0.18,weatherlink.com 1.10,2013-01-07 00:02:00,
2013-01-06 19:17:00,70.5,68.0,30.10,SW,226,2.0,-999.0,90,-99.99,,,0.18,weatherlink.com 1.10,2013-01-07 00:17:00,
2013-01-06 19:32:00,70.1,67.0,30.10,SW,225,0.0,-999.0,91,-99.99,,,0.18,weatherlink.com 1.10,2013-01-07 00:32:00,
2013-01-06 19:47:00,70.0,68.0,30.11,SW,225,0.0,-999.0,92,-99.99,,,0.18,weatherlink.com 1.10,2013-01-07 00:47:00,
2013-01-06 20:02:00,69.7,67.0,30.11,SW,227,0.0,-999.0,92,-99.99,,,0.18,weatherlink.com 1.10,2013-01-07 01:02:00,
2013-01-06 20:17:00,69.3,67.0,30.11,SW,232,1.0,-999.0,92,-99.99,,,0.18,weatherlink.com 1.10,2013-01-07 01:17:00,
2013-01-06 20:32:00,69.1,67.0,30.12,WSW,254,2.0,-999.0,92,-99.99,,,0.18,weatherlink.com 1.10,2013-01-07 01:32:00,
2013-01-06 20:47:00,68.8,67.0,30.12,North,5,3.0,-999.0,93,-99.99,,,0.18,weatherlink.com 1.10,2013-01-07 01:47:00,
2013-01-06 21:02:00,68.5,67.0,30.11,NE,45,0.0,-999.0,94,-99.99,,,0.18,weatherlink.com 1.10,2013-01-07 02:02:00,
2013-01-06 21:17:00,67.9,66.0,30.12,NE,54,4.0,-999.0,94,-99.99,,,0.18,weatherlink.com 1.10,2013-01-07 02:17:00,
2013-01-06 21:32:00,66.7,65.0,30.13,NE,44,6.0,-999.0,93,-99.99,,,0.18,weatherlink.com 1.10,2013-01-07 02:32:00,
2013-01-06 21:47:00,65.7,64.0,30.14,NE,48,2.0,-999.0,94,-99.99,,,0.18,weatherlink.com 1.10,2013-01-07 02:47:00,
2013-01-06 22:03:00,64.9,63.0,30.13,ENE,68,6.0,-999.0,94,-99.99,,,0.18,weatherlink.com 1.10,2013-01-07 03:03:00,
2013-01-06 22:17:00,64.4,63.0,30.14,East,84,5.0,-999.0,94,-99.99,,,0.18,weatherlink.com 1.10,2013-01-07 03:17:00,
2013-01-06 22:32:00,63.5,62.0,30.14,ENE,57,5.0,-999.0,94,-99.99,,,0.18,weatherlink.com 1.10,2013-01-07 03:32:00,
2013-01-06 22:47:00,63.1,62.0,30.14,NE,42,5.0,-999.0,95,-99.99,,,0.18,weatherlink.com 1.10,2013-01-07 03:47:00,
2013-01-06 23:02:00,62.9,62.0,30.15,ENE,78,7.0,-999.0,95,-99.99,,,0.18,weatherlink.com 1.10,2013-01-07 04:02:00,
2013-01-06 23:18:00,62.5,61.0,30.14,ENE,61,1.0,-999.0,95,-99.99,,,0.18,weatherlink.com 1.10,2013-01-07 04:18:00,
2013-01-06 23:32:00,62.4,61.0,30.14,ENE,63,6.0,-999.0,95,-99.99,,,0.18,weatherlink.com 1.10,2013-01-07 04:32:00,
2013-01-06 23:47:00,62.1,61.0,30.15,ENE,59,0.0,-999.0,95,-99.99,,,0.18,weatherlink.com 1.10,2013-01-07 04:47:00,